Time;durP1;ratioP1;P1;durP2;ratioP2;P2;SDS_P1;SDS_P2;PMS_P1;PMS_P2;Temp;Humidity;BMP_temperature;BMP_pressure;BME280_temperature;BME280_humidity;BME280_pressure;Samples;Min_cycle;Max_cycle;Signal;HPM_P1;HPM_P2
2023/05/26 00:01:20;;;;;;;;;;;;;;;7.69;82.28;102792.53;5086861;28;19971;-73
2023/05/26 00:03:48;;;;;;;;;;;;;;;7.77;81.19;102792.34;5063889;28;20010;-74
2023/05/26 00:06:14;;;;;;;;;;;;;;;7.80;81.12;102786.63;5091085;28;19944;-73
2023/05/26 00:08:40;;;;;;;;;;;;;;;7.80;80.96;102783.94;5100205;28;20465;-72
2023/05/26 00:11:06;;;;;;;;;;;;;;;7.81;79.95;102788.25;5074207;28;19915;-74
2023/05/26 00:13:32;;;;;;;;;;;;;;;7.69;80.64;102797.84;5080856;28;19932;-72
2023/05/26 00:15:58;;;;;;;;;;;;;;;7.90;79.07;102779.03;5078616;27;20294;-70
2023/05/26 00:18:26;;;;;;;;;;;;;;;7.83;79.46;102778.19;5090117;28;19934;-71
2023/05/26 00:20:52;;;;;;;;;;;;;;;7.67;81.84;102775.91;5076236;28;19962;-72
2023/05/26 00:23:18;;;;;;;;;;;;;;;7.82;79.75;102787.22;5075275;28;19943;-73
2023/05/26 00:25:43;;;;;;;;;;;;;;;7.79;79.93;102787.63;5107055;28;19931;-72
2023/05/26 00:28:09;;;;;;;;;;;;;;;7.68;80.33;102790.06;5084723;28;20060;-71
2023/05/26 00:30:37;;;;;;;;;;;;;;;7.48;81.07;102790.81;5102415;28;19968;-70
2023/05/26 00:33:02;;;;;;;;;;;;;;;7.47;81.66;102793.66;5084826;28;19931;-72
2023/05/26 00:35:29;;;;;;;;;;;;;;;7.42;81.64;102798.78;5101311;28;19950;-76
2023/05/26 00:37:55;;;;;;;;;;;;;;;7.52;80.92;102789.41;5071313;28;19979;-72
2023/05/26 00:40:21;;;;;;;;;;;;;;;7.58;80.48;102795.75;5070240;28;20043;-73
2023/05/26 00:42:46;;;;;;;;;;;;;;;7.58;80.47;102796.56;5087528;28;19930;-71
2023/05/26 00:45:12;;;;;;;;;;;;;;;7.50;80.79;102793.25;5088569;28;19944;-73
2023/05/26 00:47:38;;;;;;;;;;;;;;;7.52;80.48;102793.88;5082345;28;20107;-72
2023/05/26 00:50:04;;;;;;;;;;;;;;;7.47;80.47;102801.66;5088395;28;20719;-74
2023/05/26 00:52:33;;;;;;;;;;;;;;;7.38;nan;102796.50;5088147;28;22035;-71
2023/05/26 00:54:59;;;;;;;;;;;;;;;7.35;82.27;102801.41;5076306;28;19972;-73
2023/05/26 00:57:27;;;;;;;;;;;;;;;7.25;82.15;102796.44;5073018;28;19986;-75
2023/05/26 00:59:57;;;;;;;;;;;;;;;7.30;82.74;102803.84;5072970;28;20459;-72
2023/05/26 01:02:23;;;;;;;;;;;;;;;7.09;82.94;102802.06;5073457;28;19936;-73
2023/05/26 01:04:52;;;;;;;;;;;;;;;7.31;81.17;102800.13;5052387;28;19936;-70
2023/05/26 01:07:18;;;;;;;;;;;;;;;7.25;82.39;102795.63;5092797;28;20414;-70
2023/05/26 01:09:44;;;;;;;;;;;;;;;7.17;82.85;102806.41;5088535;28;19970;-74
2023/05/26 01:12:14;;;;;;;;;;;;;;;7.04;84.12;102802.66;5074624;28;20123;-72
2023/05/26 01:14:41;;;;;;;;;;;;;;;6.98;83.06;102807.97;5099402;28;19929;-71
2023/05/26 01:17:12;;;;;;;;;;;;;;;7.01;82.68;102799.56;5070926;28;20473;-74
2023/05/26 01:19:42;;;;;;;;;;;;;;;6.95;83.08;102813.66;5072368;28;20134;-70
2023/05/26 01:22:18;;;;;;;;;;;;;;;7.01;82.61;102804.91;5072192;28;19942;-73
2023/05/26 01:25:00;;;;;;;;;;;;;;;6.88;82.91;102810.13;5086292;28;19941;-74
2023/05/26 01:27:46;;;;;;;;;;;;;;;6.67;83.66;102811.84;5070767;28;20408;-72
2023/05/26 01:30:12;;;;;;;;;;;;;;;6.70;83.69;102819.41;5052585;28;20406;-74
2023/05/26 01:32:37;;;;;;;;;;;;;;;6.64;83.72;102819.38;5050906;28;19969;-70
2023/05/26 01:35:03;;;;;;;;;;;;;;;6.56;83.92;102815.00;5083105;28;20040;-70
2023/05/26 01:37:29;;;;;;;;;;;;;;;6.46;84.53;102818.00;5087541;28;19989;-73
2023/05/26 01:39:54;;;;;;;;;;;;;;;6.72;82.20;102817.41;5084555;28;20336;-71
2023/05/26 01:42:22;;;;;;;;;;;;;;;6.68;82.75;102823.31;5072513;28;20441;-73
2023/05/26 01:44:54;;;;;;;;;;;;;;;6.66;82.79;102822.69;5104535;27;19965;-71
2023/05/26 01:47:22;;;;;;;;;;;;;;;6.74;81.09;102830.53;5086234;28;19955;-73
2023/05/26 01:49:50;;;;;;;;;;;;;;;6.67;82.28;102817.16;5082750;28;20025;-73
2023/05/26 01:52:17;;;;;;;;;;;;;;;6.53;82.19;102826.06;5087765;28;19940;-73
2023/05/26 01:54:46;;;;;;;;;;;;;;;6.52;81.68;102832.41;5084016;28;20079;-70
2023/05/26 01:57:13;;;;;;;;;;;;;;;6.54;81.25;102822.38;5070070;28;19951;-71
2023/05/26 01:59:39;;;;;;;;;;;;;;;6.47;82.01;102819.66;5087934;28;19952;-70
2023/05/26 02:02:08;;;;;;;;;;;;;;;6.46;81.33;102822.50;5082402;28;19937;-71
2023/05/26 02:04:36;;;;;;;;;;;;;;;6.48;80.91;102812.50;5055375;28;19932;-70
2023/05/26 02:07:05;;;;;;;;;;;;;;;6.39;81.55;102824.28;5071047;28;20488;-70
2023/05/26 02:09:31;;;;;;;;;;;;;;;6.43;80.84;102829.03;5068664;28;19939;-73
2023/05/26 02:11:57;;;;;;;;;;;;;;;6.41;82.26;102827.56;5080657;28;19938;-72
2023/05/26 02:14:22;;;;;;;;;;;;;;;6.45;81.03;102826.19;5067783;28;19935;-74
2023/05/26 02:16:48;;;;;;;;;;;;;;;6.41;80.68;102831.06;5056387;28;19992;-72
2023/05/26 02:19:13;;;;;;;;;;;;;;;6.35;80.84;102837.13;5055622;28;20435;-74
2023/05/26 02:21:39;;;;;;;;;;;;;;;6.46;79.77;102833.97;5054437;28;19931;-72
2023/05/26 02:24:05;;;;;;;;;;;;;;;6.42;80.33;102845.19;5088798;28;20398;-71
2023/05/26 02:26:30;;;;;;;;;;;;;;;6.34;80.29;102840.00;5073425;28;19949;-69
2023/05/26 02:28:56;;;;;;;;;;;;;;;6.25;80.71;102839.31;5085986;28;19944;-72
2023/05/26 02:31:22;;;;;;;;;;;;;;;6.21;81.24;102852.16;5106866;28;19932;-73
2023/05/26 02:33:48;;;;;;;;;;;;;;;6.23;80.53;102854.63;5054508;28;19939;-71
2023/05/26 02:36:14;;;;;;;;;;;;;;;6.21;81.03;102861.97;5085725;28;19948;-73
2023/05/26 02:38:42;;;;;;;;;;;;;;;6.09;82.20;102861.63;5084827;28;20058;-74
2023/05/26 02:41:08;;;;;;;;;;;;;;;6.10;81.60;102862.50;5100492;28;19933;-73
2023/05/26 02:43:34;;;;;;;;;;;;;;;5.96;82.20;102865.00;5075268;28;19934;-74
2023/05/26 02:46:01;;;;;;;;;;;;;;;5.96;82.02;102869.47;5055809;28;19931;-72
2023/05/26 02:48:28;;;;;;;;;;;;;;;5.98;81.96;102872.78;5052543;28;19926;-71
2023/05/26 02:50:59;;;;;;;;;;;;;;;5.98;81.39;102862.97;5086105;28;19938;-69
2023/05/26 02:53:25;;;;;;;;;;;;;;;5.85;82.37;102869.94;5065735;28;19943;-71
2023/05/26 02:55:51;;;;;;;;;;;;;;;5.84;83.30;102873.59;5085911;28;19941;-72
2023/05/26 02:58:17;;;;;;;;;;;;;;;5.85;82.69;102872.59;5101050;28;19946;-72
2023/05/26 03:00:43;;;;;;;;;;;;;;;5.84;82.68;102866.44;5051266;28;19932;-74
2023/05/26 03:03:09;;;;;;;;;;;;;;;5.67;83.71;102868.47;5075517;28;19934;-71
2023/05/26 03:05:35;;;;;;;;;;;;;;;5.57;84.20;102870.59;5067545;28;19930;-74
2023/05/26 03:08:03;;;;;;;;;;;;;;;5.60;84.23;102875.53;5051502;28;20015;-73
2023/05/26 03:10:29;;;;;;;;;;;;;;;5.56;83.74;102868.97;5072389;28;19930;-73
2023/05/26 03:12:55;;;;;;;;;;;;;;;5.54;83.99;102873.59;5071104;28;20430;-75
2023/05/26 03:15:22;;;;;;;;;;;;;;;5.68;83.03;102883.41;5055682;28;19932;-72
2023/05/26 03:17:50;;;;;;;;;;;;;;;5.72;83.22;102868.75;5069866;28;19974;-74
2023/05/26 03:20:19;;;;;;;;;;;;;;;5.68;83.42;102872.78;5088297;28;20408;-74
2023/05/26 03:22:45;;;;;;;;;;;;;;;5.59;83.68;102870.41;5070546;28;20033;-72
2023/05/26 03:25:11;;;;;;;;;;;;;;;5.60;84.37;102872.88;5076533;28;19968;-72
2023/05/26 03:27:43;;;;;;;;;;;;;;;5.71;82.78;102872.41;5069783;28;19948;-73
2023/05/26 03:30:09;;;;;;;;;;;;;;;5.78;82.34;102877.00;5050455;28;19941;-69
2023/05/26 03:32:38;;;;;;;;;;;;;;;5.72;82.90;102890.00;5080644;28;20350;-72
2023/05/26 03:35:04;;;;;;;;;;;;;;;5.77;82.84;102878.00;5083965;28;19935;-72
2023/05/26 03:37:29;;;;;;;;;;;;;;;5.69;83.93;102881.56;5082277;28;19947;-71
2023/05/26 03:39:55;;;;;;;;;;;;;;;5.66;83.35;102890.75;5086687;28;20039;-70
2023/05/26 03:42:23;;;;;;;;;;;;;;;5.82;82.52;102891.56;5056341;28;20378;-73
2023/05/26 03:44:50;;;;;;;;;;;;;;;5.81;82.45;102889.91;5086455;28;20308;-71
2023/05/26 03:47:16;;;;;;;;;;;;;;;5.77;82.80;102891.31;5084568;28;19956;-70
2023/05/26 03:49:42;;;;;;;;;;;;;;;5.90;82.48;102891.47;5080868;28;19988;-71
2023/05/26 03:52:08;;;;;;;;;;;;;;;5.88;82.41;102894.31;5082669;28;20430;-74
2023/05/26 03:54:33;;;;;;;;;;;;;;;5.91;82.22;102893.16;5068724;28;20856;-73
2023/05/26 03:56:59;;;;;;;;;;;;;;;5.88;82.81;102890.81;5084595;28;20460;-70
2023/05/26 03:59:24;;;;;;;;;;;;;;;5.94;82.04;102888.28;5089201;28;19950;-70
2023/05/26 04:01:50;;;;;;;;;;;;;;;5.98;81.80;102888.75;5082090;28;19986;-72
2023/05/26 04:04:16;;;;;;;;;;;;;;;5.89;83.60;102892.47;5088027;28;19935;-73
2023/05/26 04:06:41;;;;;;;;;;;;;;;5.96;82.47;102890.75;5083407;28;19952;-71
2023/05/26 04:09:08;;;;;;;;;;;;;;;6.11;81.68;102893.38;5050550;28;20306;-71
2023/05/26 04:11:34;;;;;;;;;;;;;;;6.08;82.50;102894.56;5073703;28;19937;-70
2023/05/26 04:14:00;;;;;;;;;;;;;;;6.00;83.63;102897.34;5069857;28;19971;-71
2023/05/26 04:16:26;;;;;;;;;;;;;;;6.00;83.31;102898.16;5070746;28;20004;-72
2023/05/26 04:18:52;;;;;;;;;;;;;;;6.12;82.14;102901.19;5072842;28;20033;-73
2023/05/26 04:21:18;;;;;;;;;;;;;;;6.23;81.66;102900.69;5072758;28;20747;-69
2023/05/26 04:23:51;;;;;;;;;;;;;;;6.28;81.28;102905.44;5092813;28;20021;-72
2023/05/26 04:26:18;;;;;;;;;;;;;;;6.32;80.78;102905.91;5091245;28;19958;-72
2023/05/26 04:29:08;;;;;;;;;;;;;;;6.35;81.11;102901.00;5068004;28;19940;-73
2023/05/26 04:32:03;;;;;;;;;;;;;;;6.46;80.73;102900.53;5084698;28;20028;-71
2023/05/26 04:34:48;;;;;;;;;;;;;;;6.59;79.90;102915.81;5086193;28;20019;-74
2023/05/26 04:37:15;;;;;;;;;;;;;;;6.56;80.56;102906.34;5068549;28;20358;-70
2023/05/26 04:39:41;;;;;;;;;;;;;;;6.61;81.00;102912.94;5089500;28;19949;-72
2023/05/26 04:42:06;;;;;;;;;;;;;;;6.71;79.67;102914.28;5105276;28;20081;-72
2023/05/26 04:44:32;;;;;;;;;;;;;;;6.81;79.76;102913.97;5084892;28;19938;-74
2023/05/26 04:47:02;;;;;;;;;;;;;;;6.93;79.69;102914.28;5057701;28;20004;-73
2023/05/26 04:49:29;;;;;;;;;;;;;;;6.95;79.49;102917.56;5091781;28;20080;-73
2023/05/26 04:51:56;;;;;;;;;;;;;;;6.98;79.03;102922.53;5071003;28;20523;-73
2023/05/26 04:54:22;;;;;;;;;;;;;;;6.99;78.75;102924.16;5068836;28;19933;-76
2023/05/26 04:56:47;;;;;;;;;;;;;;;7.12;78.49;102918.94;5069756;28;19955;-71
2023/05/26 04:59:13;;;;;;;;;;;;;;;7.11;78.04;102919.94;5090791;28;19948;-72
2023/05/26 05:01:39;;;;;;;;;;;;;;;7.15;78.05;102923.88;5079639;28;19934;-72
2023/05/26 05:04:13;;;;;;;;;;;;;;;7.17;78.81;102924.50;5086667;28;19932;-73
2023/05/26 05:06:46;;;;;;;;;;;;;;;7.32;77.64;102916.44;5067295;28;19956;-74
2023/05/26 05:09:12;;;;;;;;;;;;;;;7.44;76.67;102927.34;5057594;27;19938;-71
2023/05/26 05:11:37;;;;;;;;;;;;;;;7.56;77.07;102925.78;5087861;28;19930;-76
2023/05/26 05:14:04;;;;;;;;;;;;;;;7.64;76.88;102930.97;5088584;28;19933;-73
2023/05/26 05:16:30;;;;;;;;;;;;;;;7.66;76.63;102932.44;5091996;28;19947;-72
2023/05/26 05:19:01;;;;;;;;;;;;;;;7.70;77.22;102932.84;5086547;28;19949;-74
2023/05/26 05:21:28;;;;;;;;;;;;;;;7.81;76.38;102934.16;5092954;28;20418;-70
2023/05/26 05:23:56;;;;;;;;;;;;;;;7.81;75.35;102929.63;5075258;28;20015;-72
2023/05/26 05:26:22;;;;;;;;;;;;;;;7.79;74.94;102936.16;5085528;28;19965;-72
2023/05/26 05:28:48;;;;;;;;;;;;;;;7.92;75.28;102942.41;5084889;28;19934;-74
2023/05/26 05:31:26;;;;;;;;;;;;;;;7.94;75.86;102943.03;5091926;28;19931;-74
2023/05/26 05:33:52;;;;;;;;;;;;;;;8.09;74.74;102936.72;5069807;28;19944;-72
2023/05/26 05:36:18;;;;;;;;;;;;;;;8.20;74.74;102944.19;5088056;28;19942;-72
2023/05/26 05:38:44;;;;;;;;;;;;;;;8.26;75.03;102946.03;5067877;28;19973;-71
2023/05/26 05:41:09;;;;;;;;;;;;;;;8.24;73.11;102952.59;5090978;28;19939;-74
2023/05/26 05:43:35;;;;;;;;;;;;;;;8.48;72.58;102957.44;5088848;28;20318;-71
2023/05/26 05:46:01;;;;;;;;;;;;;;;8.46;74.43;102954.94;5086225;28;19966;-72
2023/05/26 05:48:46;;;;;;;;;;;;;;;8.52;72.74;102952.50;5088249;28;20032;-72
2023/05/26 05:51:21;;;;;;;;;;;;;;;8.78;72.17;102960.56;5075185;28;19954;-71
2023/05/26 05:53:47;;;;;;;;;;;;;;;8.70;71.96;102960.78;5073009;28;19977;-72
2023/05/26 05:56:12;;;;;;;;;;;;;;;8.85;71.58;102960.59;5087070;28;19947;-74
2023/05/26 05:58:38;;;;;;;;;;;;;;;9.13;71.15;102963.06;5057714;28;19959;-73
2023/05/26 06:01:07;;;;;;;;;;;;;;;9.35;72.30;102964.50;5101739;28;19941;-73
2023/05/26 06:03:32;;;;;;;;;;;;;;;9.32;72.62;102964.91;5070258;28;19932;-74
2023/05/26 06:06:01;;;;;;;;;;;;;;;9.55;69.44;102957.28;5073619;28;19945;-72
2023/05/26 06:08:26;;;;;;;;;;;;;;;9.53;68.63;102956.66;5080995;28;19928;-71
2023/05/26 06:10:52;;;;;;;;;;;;;;;9.71;68.81;102965.91;5073327;28;19944;-73
2023/05/26 06:13:18;;;;;;;;;;;;;;;9.80;67.85;102961.94;5090088;28;19916;-75
2023/05/26 06:15:43;;;;;;;;;;;;;;;9.89;69.76;102963.38;5102123;28;19929;-70
2023/05/26 06:18:09;;;;;;;;;;;;;;;9.95;67.31;102959.00;5083373;28;19950;-71
2023/05/26 06:20:35;;;;;;;;;;;;;;;9.91;66.70;102968.53;5084852;28;19953;-73
2023/05/26 06:23:00;;;;;;;;;;;;;;;9.93;66.25;102963.78;5087208;28;19934;-70
2023/05/26 06:25:26;;;;;;;;;;;;;;;9.90;66.54;102973.06;5071165;28;20363;-73
2023/05/26 06:27:53;;;;;;;;;;;;;;;10.18;66.92;102971.94;5087549;28;19955;-71
2023/05/26 06:30:18;;;;;;;;;;;;;;;10.39;65.64;102960.94;5089261;28;20353;-73
2023/05/26 06:32:48;;;;;;;;;;;;;;;10.33;66.42;102967.13;5083719;28;19939;-73
2023/05/26 06:35:13;;;;;;;;;;;;;;;10.53;66.41;102962.50;5083033;28;19935;-71
2023/05/26 06:37:45;;;;;;;;;;;;;;;10.61;64.27;102972.97;5090555;28;19975;-71
2023/05/26 06:40:11;;;;;;;;;;;;;;;10.63;63.76;102976.25;5073323;28;19954;-72
2023/05/26 06:42:38;;;;;;;;;;;;;;;10.54;63.85;102974.84;5084490;28;19932;-71
2023/05/26 06:45:04;;;;;;;;;;;;;;;10.81;64.94;102978.19;5073377;28;19937;-71
2023/05/26 06:47:30;;;;;;;;;;;;;;;10.79;63.78;102966.06;5052069;28;19942;-70
2023/05/26 06:50:08;;;;;;;;;;;;;;;10.87;63.47;102981.88;5055046;28;19983;-72
2023/05/26 06:52:34;;;;;;;;;;;;;;;11.27;62.89;102968.97;5088710;28;19966;-73
2023/05/26 06:55:00;;;;;;;;;;;;;;;10.96;62.13;102975.19;5067595;28;19963;-74
2023/05/26 06:57:25;;;;;;;;;;;;;;;11.13;62.38;102970.94;5083409;28;19943;-72
2023/05/26 06:59:51;;;;;;;;;;;;;;;10.98;62.49;102969.66;5085080;28;20504;-73
2023/05/26 07:02:16;;;;;;;;;;;;;;;10.97;62.17;102971.47;5071013;28;19927;-71
2023/05/26 07:04:43;;;;;;;;;;;;;;;11.41;61.46;102970.50;5106823;27;19983;-70
2023/05/26 07:07:08;;;;;;;;;;;;;;;11.85;62.88;102974.00;5070568;28;19948;-74
2023/05/26 07:09:34;;;;;;;;;;;;;;;11.75;60.33;102971.81;5103337;27;19937;-70
2023/05/26 07:12:00;;;;;;;;;;;;;;;11.75;59.89;102970.97;5088600;28;19941;-73
2023/05/26 07:14:53;;;;;;;;;;;;;;;11.80;59.47;102981.88;5082480;28;19941;-71
2023/05/26 07:17:18;;;;;;;;;;;;;;;11.98;59.54;102981.06;5107070;28;19947;-69
2023/05/26 07:19:46;;;;;;;;;;;;;;;11.91;58.12;102975.78;5073072;28;19960;-69
2023/05/26 07:22:11;;;;;;;;;;;;;;;12.20;57.53;102978.78;5054655;28;20277;-73
2023/05/26 07:24:48;;;;;;;;;;;;;;;12.33;58.24;102993.88;5070526;28;19979;-73
2023/05/26 07:27:23;;;;;;;;;;;;;;;12.55;58.21;102978.91;5088138;28;19950;-70
2023/05/26 07:29:48;;;;;;;;;;;;;;;12.64;56.75;102985.59;5083926;28;20705;-73
2023/05/26 07:32:14;;;;;;;;;;;;;;;12.64;54.93;102974.03;5086201;28;19951;-73
2023/05/26 07:34:40;;;;;;;;;;;;;;;13.01;57.00;102974.72;5072381;28;19962;-71
2023/05/26 07:37:05;;;;;;;;;;;;;;;13.20;56.28;102987.03;5070735;28;19960;-74
2023/05/26 07:39:30;;;;;;;;;;;;;;;12.94;52.96;102968.59;5077202;28;19951;-71
2023/05/26 07:41:56;;;;;;;;;;;;;;;12.81;53.11;102975.84;5081975;28;19929;-72
2023/05/26 07:44:22;;;;;;;;;;;;;;;13.27;54.54;102976.97;5088736;28;19935;-71
2023/05/26 07:46:48;;;;;;;;;;;;;;;13.35;51.95;102976.66;5086438;28;20336;-71
2023/05/26 07:49:14;;;;;;;;;;;;;;;13.27;51.84;102970.78;5088793;28;19945;-71
2023/05/26 07:51:40;;;;;;;;;;;;;;;13.35;52.94;102979.34;5099278;28;19934;-73
2023/05/26 07:54:05;;;;;;;;;;;;;;;13.66;55.48;102974.63;5068609;28;19937;-72
2023/05/26 07:56:31;;;;;;;;;;;;;;;13.70;52.94;102973.13;5087817;28;19946;-72
2023/05/26 07:58:56;;;;;;;;;;;;;;;13.84;51.94;102971.81;5103566;28;19955;-72
2023/05/26 08:01:22;;;;;;;;;;;;;;;13.71;52.76;102980.16;5086647;28;19978;-74
2023/05/26 08:03:48;;;;;;;;;;;;;;;13.64;52.27;102968.69;5099880;28;19932;-74
2023/05/26 08:06:13;;;;;;;;;;;;;;;13.81;51.66;102963.38;5083536;28;19963;-74
2023/05/26 08:08:38;;;;;;;;;;;;;;;14.17;51.99;102971.16;5082093;28;19948;-73
2023/05/26 08:11:04;;;;;;;;;;;;;;;14.06;51.05;102968.47;5089599;28;20357;-72
2023/05/26 08:13:29;;;;;;;;;;;;;;;14.54;53.15;102968.09;5088902;28;19928;-70
2023/05/26 08:15:55;;;;;;;;;;;;;;;14.29;51.32;102979.16;5085939;28;19941;-70
2023/05/26 08:18:21;;;;;;;;;;;;;;;14.44;52.01;102971.41;5072567;28;20958;-73
2023/05/26 08:20:52;;;;;;;;;;;;;;;14.19;51.58;102987.88;5072253;28;20014;-68
2023/05/26 08:23:18;;;;;;;;;;;;;;;14.81;50.78;102989.88;5102652;28;19971;-70
2023/05/26 08:25:43;;;;;;;;;;;;;;;14.89;53.23;102986.78;5086690;28;19999;-69
2023/05/26 08:28:09;;;;;;;;;;;;;;;14.78;50.73;102976.06;5086902;28;19992;-73
2023/05/26 08:30:34;;;;;;;;;;;;;;;14.18;51.19;102972.78;5072597;28;19929;-74
2023/05/26 08:33:00;;;;;;;;;;;;;;;14.45;51.87;102973.03;5085163;28;20007;-73
2023/05/26 08:35:26;;;;;;;;;;;;;;;14.40;49.28;102975.63;5087000;28;20322;-73
2023/05/26 08:37:52;;;;;;;;;;;;;;;14.61;48.86;102973.34;5110060;28;20343;-72
2023/05/26 08:40:17;;;;;;;;;;;;;;;15.12;49.23;102966.94;5098276;28;19952;-73
2023/05/26 08:42:45;;;;;;;;;;;;;;;14.86;49.78;102976.47;5090305;28;20021;-72
2023/05/26 08:45:11;;;;;;;;;;;;;;;14.68;50.28;102974.00;5076000;28;19940;-73
2023/05/26 08:47:37;;;;;;;;;;;;;;;15.00;50.04;102972.41;5072093;28;20425;-70
2023/05/26 08:50:03;;;;;;;;;;;;;;;15.32;48.83;102971.81;5100162;28;19941;-70
2023/05/26 08:52:29;;;;;;;;;;;;;;;15.16;48.98;102978.03;5093152;28;19932;-71
2023/05/26 08:54:55;;;;;;;;;;;;;;;15.28;49.15;102965.28;5098397;28;19939;-71
2023/05/26 08:57:21;;;;;;;;;;;;;;;14.92;48.37;102975.50;5087097;28;19950;-73
2023/05/26 08:59:47;;;;;;;;;;;;;;;15.50;50.10;102966.13;5108318;28;19943;-72
2023/05/26 09:02:17;;;;;;;;;;;;;;;15.25;47.55;102963.06;5099556;28;19933;-74
2023/05/26 09:04:42;;;;;;;;;;;;;;;15.27;47.73;102967.16;5106956;27;19948;-70
2023/05/26 09:07:08;;;;;;;;;;;;;;;15.94;49.56;102958.09;5081388;28;20432;-72
2023/05/26 09:09:37;;;;;;;;;;;;;;;15.88;50.19;102972.63;5074916;28;20398;-71
2023/05/26 09:12:08;;;;;;;;;;;;;;;15.77;49.35;102957.34;5099068;28;19941;-72
2023/05/26 09:14:35;;;;;;;;;;;;;;;15.70;47.45;102965.63;5100120;28;20043;-74
2023/05/26 09:17:02;;;;;;;;;;;;;;;15.51;47.43;102948.88;5089205;28;20056;-71
2023/05/26 09:19:27;;;;;;;;;;;;;;;15.68;46.66;102948.03;5105508;28;19944;-73
2023/05/26 09:21:53;;;;;;;;;;;;;;;16.07;49.09;102955.03;5088281;28;19956;-73
2023/05/26 09:24:20;;;;;;;;;;;;;;;16.04;46.60;102950.09;5088859;28;19986;-73
2023/05/26 09:26:47;;;;;;;;;;;;;;;15.63;44.88;102942.56;5070270;28;19988;-73
2023/05/26 09:29:13;;;;;;;;;;;;;;;15.53;46.88;102952.16;5073398;28;20776;-73
2023/05/26 09:31:39;;;;;;;;;;;;;;;15.95;47.86;102950.81;5087744;28;20020;-73
2023/05/26 09:34:05;;;;;;;;;;;;;;;15.92;47.35;102957.56;5073372;28;19947;-72
2023/05/26 09:36:33;;;;;;;;;;;;;;;16.24;47.35;102965.75;5073873;28;19956;-70
2023/05/26 09:39:00;;;;;;;;;;;;;;;16.01;46.55;102966.84;5090399;28;19988;-74
2023/05/26 09:41:36;;;;;;;;;;;;;;;16.20;46.78;102963.81;5101033;28;19937;-72
2023/05/26 09:44:12;;;;;;;;;;;;;;;16.18;46.77;102955.13;5079650;28;19993;-69
2023/05/26 09:46:38;;;;;;;;;;;;;;;15.74;48.55;102955.16;5080625;28;19997;-70
2023/05/26 09:49:08;;;;;;;;;;;;;;;16.10;46.33;102957.22;5083994;28;20548;-72
2023/05/26 09:51:33;;;;;;;;;;;;;;;16.01;46.59;102961.44;5098632;28;19937;-75
2023/05/26 09:53:59;;;;;;;;;;;;;;;16.26;48.34;102960.91;5084093;28;20025;-73
2023/05/26 09:56:26;;;;;;;;;;;;;;;16.22;47.18;102964.38;5086306;28;19957;-74
2023/05/26 09:58:53;;;;;;;;;;;;;;;16.51;46.96;102954.94;5084907;28;20091;-74
2023/05/26 10:01:20;;;;;;;;;;;;;;;16.62;45.26;102956.66;5105093;28;19936;-72
2023/05/26 10:03:46;;;;;;;;;;;;;;;16.59;45.86;102968.00;5073242;28;19985;-74
2023/05/26 10:06:12;;;;;;;;;;;;;;;17.05;46.71;102957.59;5105285;28;19978;-71
2023/05/26 10:08:39;;;;;;;;;;;;;;;16.51;45.65;102952.22;5074125;28;19954;-73
2023/05/26 10:11:05;;;;;;;;;;;;;;;16.71;45.00;102958.94;5084331;28;20331;-74
2023/05/26 10:13:31;;;;;;;;;;;;;;;16.23;45.03;102953.31;5070889;28;19928;-74
2023/05/26 10:15:56;;;;;;;;;;;;;;;16.30;45.72;102958.50;5088097;28;20359;-69
2023/05/26 10:18:22;;;;;;;;;;;;;;;16.62;45.45;102959.38;5089100;28;19936;-71
2023/05/26 10:20:49;;;;;;;;;;;;;;;17.22;45.41;102965.59;5085040;28;19953;-70
2023/05/26 10:23:19;;;;;;;;;;;;;;;16.59;44.11;102957.16;5103665;28;19929;-71
2023/05/26 10:25:44;;;;;;;;;;;;;;;16.90;45.34;102973.72;5101848;28;19948;-74
2023/05/26 10:28:13;;;;;;;;;;;;;;;17.08;45.10;102957.09;5081412;28;19968;-73
2023/05/26 10:30:40;;;;;;;;;;;;;;;17.38;46.21;102963.78;5068515;28;19933;-73
2023/05/26 10:33:07;;;;;;;;;;;;;;;16.95;45.00;102965.66;5082671;28;19999;-70
2023/05/26 10:35:33;;;;;;;;;;;;;;;17.19;43.75;102966.09;5105825;27;19927;-71
2023/05/26 10:38:01;;;;;;;;;;;;;;;16.95;42.86;102962.13;5069442;28;19976;-71
2023/05/26 10:40:28;;;;;;;;;;;;;;;17.11;43.33;102970.09;5090345;28;19948;-70
2023/05/26 10:43:13;;;;;;;;;;;;;;;16.82;43.40;102966.09;5087529;28;19934;-71
2023/05/26 10:45:45;;;;;;;;;;;;;;;16.62;44.55;102962.09;5075110;28;19949;-74
2023/05/26 10:48:11;;;;;;;;;;;;;;;16.81;44.61;102956.34;5086968;28;20398;-72
2023/05/26 10:50:55;;;;;;;;;;;;;;;16.97;44.49;102954.56;5072735;28;19932;-70
2023/05/26 10:53:21;;;;;;;;;;;;;;;17.16;42.46;102958.50;5081727;28;19933;-73
2023/05/26 10:55:58;;;;;;;;;;;;;;;17.09;44.11;102950.59;5100506;28;20070;-69
2023/05/26 10:58:26;;;;;;;;;;;;;;;17.18;48.01;102954.44;5082577;28;20011;-68
2023/05/26 11:00:59;;;;;;;;;;;;;;;17.03;44.34;102951.63;5070179;28;19961;-74
2023/05/26 11:03:35;;;;;;;;;;;;;;;17.03;45.37;102962.47;5067423;28;19945;-70
2023/05/26 11:06:01;;;;;;;;;;;;;;;17.11;44.71;102948.44;5068643;28;20409;-72
2023/05/26 11:08:33;;;;;;;;;;;;;;;17.69;42.96;102941.19;5086732;28;19936;-73
2023/05/26 11:11:02;;;;;;;;;;;;;;;17.86;44.13;102953.75;5066717;28;19942;-72
2023/05/26 11:13:46;;;;;;;;;;;;;;;18.08;44.50;102956.28;5105326;28;19926;-73
2023/05/26 11:16:15;;;;;;;;;;;;;;;17.44;44.89;102951.91;5081085;28;19930;-72
2023/05/26 11:18:47;;;;;;;;;;;;;;;16.91;44.78;102948.28;5104008;27;19935;-72
2023/05/26 11:21:12;;;;;;;;;;;;;;;17.60;46.09;102953.59;5067590;28;19929;-73
2023/05/26 11:23:38;;;;;;;;;;;;;;;17.03;43.86;102948.13;5069454;28;19979;-75
2023/05/26 11:26:11;;;;;;;;;;;;;;;17.74;44.52;102938.53;5101691;28;19942;-72
2023/05/26 11:28:44;;;;;;;;;;;;;;;17.87;42.94;102944.53;5083611;28;20053;-72
2023/05/26 11:31:11;;;;;;;;;;;;;;;17.07;44.81;102931.09;5086442;28;20041;-71
2023/05/26 11:33:37;;;;;;;;;;;;;;;17.90;44.28;102931.28;5103544;28;19930;-71
2023/05/26 11:36:07;;;;;;;;;;;;;;;17.31;44.61;102930.69;5100150;28;19934;-71
2023/05/26 11:38:33;;;;;;;;;;;;;;;17.66;44.72;102927.34;5085225;28;20334;-72
2023/05/26 11:40:58;;;;;;;;;;;;;;;17.37;45.44;102943.19;5050853;28;19982;-74
2023/05/26 11:43:24;;;;;;;;;;;;;;;17.21;44.71;102944.19;5104731;28;19979;-75
2023/05/26 11:45:52;;;;;;;;;;;;;;;17.41;43.81;102938.91;5096234;28;20020;-74
2023/05/26 11:48:18;;;;;;;;;;;;;;;17.93;44.52;102940.78;5090666;28;19952;-75
2023/05/26 11:50:44;;;;;;;;;;;;;;;18.04;42.91;102934.31;5083618;28;19929;-71
2023/05/26 11:53:10;;;;;;;;;;;;;;;17.63;43.81;102944.16;5072906;28;19938;-73
2023/05/26 11:55:35;;;;;;;;;;;;;;;17.85;43.63;102931.25;5106220;28;19932;-74
2023/05/26 11:58:01;;;;;;;;;;;;;;;18.12;44.87;102944.63;5090240;28;20004;-75
2023/05/26 12:00:30;;;;;;;;;;;;;;;18.20;45.28;102954.97;5081989;28;20045;-68
2023/05/26 12:02:56;;;;;;;;;;;;;;;17.85;44.06;102946.72;5090384;28;19944;-73
2023/05/26 12:05:26;;;;;;;;;;;;;;;18.60;44.33;102944.44;5073681;28;20037;-72
2023/05/26 12:08:05;;;;;;;;;;;;;;;19.38;44.71;102946.88;5092291;28;19954;-74
2023/05/26 12:10:31;;;;;;;;;;;;;;;18.28;45.98;102956.31;5087594;28;19928;-72
2023/05/26 12:12:56;;;;;;;;;;;;;;;17.05;46.17;102948.66;5084988;28;20296;-73
2023/05/26 12:15:22;;;;;;;;;;;;;;;16.88;47.02;102954.22;5091755;28;19969;-73
2023/05/26 12:17:50;;;;;;;;;;;;;;;16.54;47.13;102949.03;5058706;28;19947;-73
2023/05/26 12:20:22;;;;;;;;;;;;;;;17.03;46.28;102945.41;5086179;28;20033;-71
2023/05/26 12:22:49;;;;;;;;;;;;;;;17.35;45.54;102953.47;5085079;28;19934;-74
2023/05/26 12:25:24;;;;;;;;;;;;;;;17.18;45.13;102962.56;5067869;28;19953;-71
2023/05/26 12:27:49;;;;;;;;;;;;;;;16.31;46.57;102949.31;5066442;28;20000;-73
2023/05/26 12:30:28;;;;;;;;;;;;;;;15.98;47.77;102959.22;5050251;28;19986;-72
2023/05/26 12:32:53;;;;;;;;;;;;;;;17.01;45.60;102959.22;5089651;28;19939;-75
2023/05/26 12:35:19;;;;;;;;;;;;;;;17.18;47.93;102957.16;5072237;28;19936;-72
2023/05/26 12:37:45;;;;;;;;;;;;;;;17.67;43.40;102950.66;5090314;28;19945;-71
2023/05/26 12:40:10;;;;;;;;;;;;;;;17.96;43.54;102942.97;5074057;28;19956;-72
2023/05/26 12:42:37;;;;;;;;;;;;;;;18.89;44.64;102939.31;5088271;28;19931;-72
2023/05/26 12:45:05;;;;;;;;;;;;;;;20.04;39.47;102933.03;5110264;28;19941;-73